createdAt,value
2023-05-14T00:01:33.463Z,3.90
2023-05-14T00:04:01.384Z,3.60
2023-05-14T00:06:29.541Z,4.10
2023-05-14T00:08:57.573Z,4.10
2023-05-14T00:11:25.424Z,3.70
2023-05-14T00:13:53.370Z,3.60
2023-05-14T00:16:21.242Z,4.20
2023-05-14T00:18:49.214Z,4.40
2023-05-14T00:21:17.403Z,4.50
2023-05-14T00:23:45.555Z,4.10
2023-05-14T00:26:13.720Z,3.90
2023-05-14T00:28:41.546Z,4.30
2023-05-14T00:31:09.364Z,4.20
2023-05-14T00:33:37.272Z,4.10
2023-05-14T00:36:05.739Z,4.40
2023-05-14T00:38:33.672Z,4.60
2023-05-14T00:41:01.499Z,4.30
2023-05-14T00:43:29.416Z,4.40
2023-05-14T00:45:57.574Z,4.70
2023-05-14T00:48:26.239Z,4.60
2023-05-14T00:50:54.782Z,4.60
2023-05-14T00:53:22.825Z,4.10
2023-05-14T00:55:51.025Z,4.40
2023-05-14T00:58:20.026Z,4.40
2023-05-14T01:00:48.507Z,4.00
2023-05-14T01:03:16.642Z,4.00
2023-05-14T01:06:08.583Z,4.90
2023-05-14T01:09:22.977Z,4.50
2023-05-14T01:12:17.457Z,4.60
2023-05-14T01:15:00.883Z,4.40
2023-05-14T01:17:34.005Z,4.50
2023-05-14T01:20:03.665Z,4.40
2023-05-14T01:22:31.662Z,4.60
2023-05-14T01:24:59.415Z,4.40
2023-05-14T01:27:42.157Z,4.40
2023-05-14T01:30:37.528Z,4.00
2023-05-14T01:33:14.345Z,4.80
2023-05-14T01:35:44.596Z,4.70
2023-05-14T01:38:17.230Z,4.90
2023-05-14T01:40:47.073Z,5.30
2023-05-14T01:43:17.028Z,4.50
2023-05-14T01:45:45.054Z,4.50
2023-05-14T01:48:12.995Z,4.70
2023-05-14T01:50:41.218Z,4.70
2023-05-14T01:53:08.987Z,4.60
2023-05-14T01:55:36.861Z,4.60
2023-05-14T01:58:04.711Z,4.80
2023-05-14T02:00:32.508Z,5.40
2023-05-14T02:03:00.577Z,4.90
2023-05-14T02:05:28.537Z,4.90
2023-05-14T02:07:56.318Z,4.50
2023-05-14T02:10:24.294Z,5.10
2023-05-14T02:12:52.359Z,4.60
2023-05-14T02:15:20.168Z,4.90
2023-05-14T02:17:48.055Z,4.50
2023-05-14T02:20:16.138Z,5.00
2023-05-14T02:22:45.807Z,5.40
2023-05-14T02:25:13.641Z,5.10
2023-05-14T02:27:41.407Z,4.80
2023-05-14T02:30:10.775Z,5.10
2023-05-14T02:32:39.010Z,4.80
2023-05-14T02:35:09.254Z,5.00
2023-05-14T02:37:37.001Z,5.00
2023-05-14T02:40:05.444Z,5.70
2023-05-14T02:42:33.263Z,5.50
2023-05-14T02:45:01.245Z,5.30
2023-05-14T02:47:29.018Z,5.10
2023-05-14T02:49:56.880Z,5.80
2023-05-14T02:52:24.670Z,5.70
2023-05-14T02:54:52.376Z,5.70
2023-05-14T02:57:21.356Z,5.60
2023-05-14T02:59:49.235Z,5.90
2023-05-14T03:02:17.661Z,5.80
2023-05-14T03:04:46.908Z,5.70
2023-05-14T03:07:14.641Z,5.70
2023-05-14T03:09:42.382Z,5.70
2023-05-14T03:12:10.220Z,5.70
2023-05-14T03:14:38.004Z,6.00
2023-05-14T03:17:06.142Z,5.90
2023-05-14T03:19:33.904Z,6.70
2023-05-14T03:22:01.864Z,5.50
2023-05-14T03:24:29.710Z,5.50
2023-05-14T03:26:57.488Z,5.00
2023-05-14T03:29:25.221Z,5.20
2023-05-14T03:31:54.452Z,5.70
2023-05-14T03:34:22.392Z,5.20
2023-05-14T03:36:50.491Z,5.10
2023-05-14T03:39:20.014Z,5.40
2023-05-14T03:41:48.547Z,5.00
2023-05-14T03:44:16.625Z,5.30
2023-05-14T03:46:44.550Z,5.20
2023-05-14T03:49:12.350Z,4.90
2023-05-14T03:51:40.966Z,5.20
2023-05-14T03:54:09.667Z,4.90
2023-05-14T03:56:37.487Z,5.20
2023-05-14T03:59:05.401Z,5.10
2023-05-14T04:01:35.577Z,4.80
2023-05-14T04:04:03.656Z,4.90
2023-05-14T04:06:34.048Z,5.40
2023-05-14T04:09:02.513Z,4.90
2023-05-14T04:11:30.384Z,5.00
2023-05-14T04:13:58.162Z,5.10
2023-05-14T04:16:26.078Z,5.20
2023-05-14T04:18:53.999Z,5.70
2023-05-14T04:21:21.806Z,5.30
2023-05-14T04:23:50.919Z,4.90
2023-05-14T04:26:18.701Z,5.40
2023-05-14T04:28:46.431Z,5.30
2023-05-14T04:31:15.681Z,5.30
2023-05-14T04:33:43.471Z,5.50
2023-05-14T04:36:11.312Z,5.00
2023-05-14T04:38:39.073Z,5.30
2023-05-14T04:41:07.305Z,5.10
2023-05-14T04:43:35.118Z,5.10
2023-05-14T04:46:03.318Z,5.10
2023-05-14T04:48:31.300Z,5.10
2023-05-14T04:50:59.165Z,5.20
2023-05-14T04:53:27.123Z,5.20
2023-05-14T04:55:55.328Z,5.30
2023-05-14T04:58:24.253Z,5.10
2023-05-14T05:00:52.157Z,5.40
2023-05-14T05:03:20.205Z,5.10
2023-05-14T05:05:48.163Z,5.40
2023-05-14T05:08:16.028Z,5.80
2023-05-14T05:10:43.808Z,5.50
2023-05-14T05:13:11.745Z,5.00
2023-05-14T05:15:39.570Z,5.60
2023-05-14T05:18:07.465Z,5.40
2023-05-14T05:20:35.380Z,5.20
2023-05-14T05:23:03.225Z,5.00
2023-05-14T05:25:32.513Z,5.10
2023-05-14T05:28:00.400Z,4.50
2023-05-14T05:30:28.410Z,4.90
2023-05-14T05:32:57.779Z,4.90
2023-05-14T05:35:25.852Z,4.60
2023-05-14T05:37:53.648Z,4.60
2023-05-14T05:40:21.720Z,4.80
2023-05-14T05:42:49.743Z,4.60
2023-05-14T05:45:17.512Z,4.40
2023-05-14T05:47:45.941Z,4.60
2023-05-14T05:50:15.070Z,4.30
2023-05-14T05:52:43.140Z,4.90
2023-05-14T05:55:11.197Z,5.10
2023-05-14T05:57:38.975Z,4.50
2023-05-14T06:00:13.275Z,4.50
2023-05-14T06:02:42.015Z,4.70
2023-05-14T06:05:14.360Z,4.50
2023-05-14T06:07:42.540Z,4.50
2023-05-14T06:10:11.166Z,4.60
2023-05-14T06:12:39.152Z,4.70
2023-05-14T06:15:07.756Z,4.70
2023-05-14T06:17:35.526Z,4.70
2023-05-14T06:20:05.667Z,4.50
2023-05-14T06:22:34.209Z,4.70
2023-05-14T06:25:02.193Z,4.60
2023-05-14T06:27:30.540Z,5.30
2023-05-14T06:29:58.433Z,5.10
2023-05-14T06:32:26.290Z,4.70
2023-05-14T06:34:54.102Z,4.70
2023-05-14T06:37:21.908Z,4.60
2023-05-14T06:39:52.654Z,4.50
2023-05-14T06:42:20.556Z,4.90
2023-05-14T06:44:48.436Z,4.30
2023-05-14T06:47:16.254Z,4.40
2023-05-14T06:49:44.214Z,4.30
2023-05-14T06:52:12.029Z,4.30
2023-05-14T06:54:39.766Z,4.60
2023-05-14T06:57:07.574Z,4.50
2023-05-14T06:59:36.059Z,4.30
2023-05-14T07:02:03.907Z,4.80
2023-05-14T07:04:32.170Z,4.50
2023-05-14T07:06:59.963Z,5.00
2023-05-14T07:09:27.825Z,4.90
2023-05-14T07:11:55.644Z,4.50
2023-05-14T07:14:23.440Z,4.70
2023-05-14T07:16:51.302Z,4.90
2023-05-14T07:19:19.128Z,4.00
2023-05-14T07:21:46.968Z,4.10
2023-05-14T07:24:14.698Z,4.80
2023-05-14T07:26:42.531Z,4.20
2023-05-14T07:29:10.455Z,4.60
2023-05-14T07:31:38.330Z,4.70
2023-05-14T07:34:06.295Z,4.40
2023-05-14T07:36:34.413Z,4.70
2023-05-14T07:39:02.341Z,4.70
2023-05-14T07:41:30.109Z,4.70
2023-05-14T07:43:58.552Z,4.30
2023-05-14T07:46:26.816Z,4.10
2023-05-14T07:48:54.672Z,4.20
2023-05-14T07:51:23.198Z,4.30
2023-05-14T07:53:51.201Z,4.00
2023-05-14T07:56:19.084Z,4.40
2023-05-14T07:58:47.077Z,4.40
2023-05-14T08:01:15.165Z,4.10
2023-05-14T08:03:43.147Z,4.30
2023-05-14T08:06:11.925Z,4.20
2023-05-14T08:08:39.947Z,4.20
2023-05-14T08:11:07.823Z,4.50
2023-05-14T08:13:35.770Z,5.30
2023-05-14T08:16:03.799Z,3.90
2023-05-14T08:18:31.792Z,4.30
2023-05-14T08:21:01.036Z,4.10
2023-05-14T08:23:30.155Z,4.00
2023-05-14T08:25:59.393Z,3.70
2023-05-14T08:28:27.187Z,4.00
2023-05-14T08:30:55.120Z,4.10
2023-05-14T08:33:23.466Z,4.20
2023-05-14T08:35:54.867Z,4.00
2023-05-14T08:38:22.726Z,3.80
2023-05-14T08:40:58.849Z,4.10
2023-05-14T08:43:56.973Z,3.70
2023-05-14T08:46:26.828Z,3.20
2023-05-14T08:49:04.347Z,4.10
2023-05-14T08:51:36.761Z,3.40
2023-05-14T08:54:06.004Z,3.70
2023-05-14T08:56:33.926Z,3.70
2023-05-14T08:59:01.716Z,4.00
2023-05-14T09:01:30.064Z,2.90
2023-05-14T09:04:01.607Z,3.50
2023-05-14T09:06:30.917Z,3.30
2023-05-14T09:08:58.832Z,3.30
2023-05-14T09:11:26.745Z,3.50
2023-05-14T09:13:54.578Z,3.10
2023-05-14T09:16:25.832Z,3.10
2023-05-14T09:18:55.267Z,3.10
2023-05-14T09:21:23.644Z,2.90
2023-05-14T09:23:57.041Z,2.90
2023-05-14T09:26:26.646Z,3.00
2023-05-14T09:28:56.621Z,3.10
2023-05-14T09:31:24.722Z,2.90
2023-05-14T09:33:53.268Z,2.60
2023-05-14T09:36:21.336Z,3.10
2023-05-14T09:38:49.136Z,3.40
2023-05-14T09:41:17.049Z,2.90
2023-05-14T09:43:45.099Z,3.20
2023-05-14T09:46:13.304Z,3.00
2023-05-14T09:48:41.257Z,3.00
2023-05-14T09:51:11.353Z,3.30
2023-05-14T09:53:41.384Z,3.10
2023-05-14T09:56:09.364Z,2.90
2023-05-14T09:58:37.311Z,3.00
2023-05-14T10:01:06.877Z,3.30
2023-05-14T10:03:36.121Z,3.30
2023-05-14T10:06:06.711Z,3.10
2023-05-14T10:08:36.479Z,3.50
2023-05-14T10:11:17.907Z,3.00
2023-05-14T10:13:58.196Z,2.90
2023-05-14T10:16:34.179Z,2.70
2023-05-14T10:19:10.940Z,2.60
2023-05-14T10:21:49.866Z,3.10
2023-05-14T10:24:20.212Z,3.10
2023-05-14T10:26:49.152Z,3.40
2023-05-14T10:29:16.952Z,3.60
2023-05-14T10:31:55.591Z,3.70
2023-05-14T10:34:46.499Z,3.70
2023-05-14T10:37:26.058Z,3.70
2023-05-14T10:39:58.877Z,4.20
2023-05-14T10:42:29.153Z,3.90
2023-05-14T10:45:01.949Z,3.90
2023-05-14T10:47:29.995Z,3.30
2023-05-14T10:50:01.920Z,4.00
2023-05-14T10:52:31.126Z,5.40
2023-05-14T10:55:07.849Z,5.80
2023-05-14T10:57:40.062Z,4.50
2023-05-14T11:00:09.278Z,4.50
2023-05-14T11:02:40.599Z,4.10
2023-05-14T11:05:15.732Z,4.70
2023-05-14T11:07:47.298Z,5.00
2023-05-14T11:10:18.627Z,4.80
2023-05-14T11:12:50.081Z,4.90
2023-05-14T11:15:23.463Z,5.30
2023-05-14T11:17:53.627Z,5.20
2023-05-14T11:20:21.971Z,5.70
2023-05-14T11:22:51.857Z,4.80
2023-05-14T11:25:20.624Z,5.30
2023-05-14T11:27:50.750Z,5.60
2023-05-14T11:30:20.723Z,5.20
2023-05-14T11:32:50.661Z,4.70
2023-05-14T11:35:18.961Z,4.80
2023-05-14T11:37:54.796Z,4.50
2023-05-14T11:40:22.951Z,4.40
2023-05-14T11:42:54.001Z,4.20
2023-05-14T11:45:27.522Z,4.40
2023-05-14T11:47:56.187Z,4.10
2023-05-14T11:50:24.295Z,4.60
2023-05-14T11:52:57.494Z,4.50
2023-05-14T11:55:25.596Z,4.40
2023-05-14T11:57:54.474Z,4.30
2023-05-14T12:00:24.158Z,4.00
2023-05-14T12:02:52.569Z,4.20
2023-05-14T12:05:20.840Z,4.10
2023-05-14T12:07:48.962Z,4.40
2023-05-14T12:10:16.789Z,4.80
2023-05-14T12:12:47.828Z,4.10
2023-05-14T12:15:21.883Z,4.80
2023-05-14T12:17:52.077Z,5.30
2023-05-14T12:20:20.230Z,5.10
2023-05-14T12:22:48.137Z,5.70
2023-05-14T12:25:16.054Z,5.60
2023-05-14T12:27:45.625Z,5.20
2023-05-14T12:32:46.178Z,4.80
2023-05-14T12:35:17.041Z,5.00
2023-05-14T12:37:45.024Z,4.90
2023-05-14T12:40:13.274Z,4.60
2023-05-14T12:42:41.157Z,4.70
2023-05-14T12:45:09.338Z,4.40
2023-05-14T12:47:37.816Z,4.70
2023-05-14T12:50:07.837Z,3.90
2023-05-14T12:52:39.139Z,4.60
2023-05-14T12:55:09.765Z,4.40
2023-05-14T12:57:39.707Z,4.90
2023-05-14T13:00:14.103Z,4.90
2023-05-14T13:02:43.664Z,4.80
2023-05-14T13:05:12.959Z,4.70
2023-05-14T13:07:41.237Z,4.70
2023-05-14T13:10:10.063Z,4.80
2023-05-14T13:12:39.011Z,4.30
2023-05-14T13:15:07.926Z,4.40
2023-05-14T13:17:37.021Z,4.40
2023-05-14T13:20:05.501Z,4.40
2023-05-14T13:22:33.728Z,4.30
2023-05-14T13:25:01.701Z,4.60
2023-05-14T13:27:30.537Z,4.60
2023-05-14T13:29:58.633Z,4.50
2023-05-14T13:32:26.528Z,4.30
2023-05-14T13:34:54.338Z,4.60
2023-05-14T13:37:22.422Z,4.50
2023-05-14T13:39:51.432Z,3.70
2023-05-14T13:42:19.584Z,3.50
2023-05-14T13:44:47.471Z,3.70
2023-05-14T13:47:15.383Z,3.20
2023-05-14T13:49:43.279Z,3.20
2023-05-14T13:52:11.116Z,3.10
2023-05-14T13:54:38.885Z,2.50
2023-05-14T13:57:06.985Z,2.80
2023-05-14T13:59:35.761Z,2.60
2023-05-14T14:02:03.810Z,2.80
2023-05-14T14:04:32.030Z,2.40
2023-05-14T14:07:00.258Z,2.40
2023-05-14T14:09:28.069Z,2.20
2023-05-14T14:11:56.014Z,2.60
2023-05-14T14:14:23.833Z,2.20
2023-05-14T14:16:51.710Z,2.20
2023-05-14T14:19:19.647Z,2.60
2023-05-14T14:21:47.837Z,2.20
2023-05-14T14:24:15.693Z,2.10
2023-05-14T14:26:43.473Z,2.10
2023-05-14T14:29:11.417Z,2.10
2023-05-14T14:31:39.381Z,2.50
2023-05-14T14:34:07.236Z,3.10
2023-05-14T14:36:35.115Z,2.90
2023-05-14T14:39:03.157Z,2.90
2023-05-14T14:41:31.100Z,3.00
2023-05-14T14:43:59.200Z,3.20
2023-05-14T14:46:27.190Z,3.10
2023-05-14T14:48:55.288Z,3.20
2023-05-14T14:51:23.255Z,3.30
2023-05-14T14:53:51.114Z,3.50
2023-05-14T14:56:19.355Z,3.40
2023-05-14T14:58:47.272Z,3.30
2023-05-14T15:01:15.244Z,3.40
2023-05-14T15:03:45.755Z,3.60
2023-05-14T15:06:13.740Z,3.50
2023-05-14T15:08:41.990Z,3.50
2023-05-14T15:11:09.900Z,3.60
2023-05-14T15:13:37.723Z,3.60
2023-05-14T15:16:05.752Z,2.90
2023-05-14T15:18:33.799Z,3.20
2023-05-14T15:21:01.857Z,2.80
2023-05-14T15:23:29.730Z,2.90
2023-05-14T15:25:57.593Z,2.80
2023-05-14T15:28:25.716Z,2.80
2023-05-14T15:30:53.580Z,2.60
2023-05-14T15:33:21.516Z,2.50
2023-05-14T15:35:49.386Z,2.60
2023-05-14T15:38:17.237Z,2.70
2023-05-14T15:40:47.992Z,2.50
2023-05-14T15:43:15.953Z,2.80
2023-05-14T15:45:45.837Z,2.90
2023-05-14T15:48:13.673Z,2.70
2023-05-14T15:50:42.497Z,2.60
2023-05-14T15:53:10.398Z,2.60
2023-05-14T15:55:38.293Z,2.40
2023-05-14T15:58:06.688Z,2.30
2023-05-14T16:00:34.641Z,2.40
2023-05-14T16:03:02.438Z,2.30
2023-05-14T16:05:30.630Z,2.60
2023-05-14T16:07:59.084Z,2.60
2023-05-14T16:10:27.127Z,2.30
2023-05-14T16:12:55.103Z,2.20
2023-05-14T16:15:22.851Z,2.40
2023-05-14T16:17:50.880Z,2.50
2023-05-14T16:20:18.849Z,2.30
2023-05-14T16:22:46.918Z,2.20
2023-05-14T16:25:14.992Z,2.40
2023-05-14T16:27:43.270Z,2.70
2023-05-14T16:30:11.725Z,2.20
2023-05-14T16:32:42.011Z,2.60
2023-05-14T16:35:10.235Z,3.00
2023-05-14T16:37:38.105Z,2.40
2023-05-14T16:40:07.645Z,2.70
2023-05-14T16:42:35.470Z,2.50
2023-05-14T16:45:04.200Z,2.30
2023-05-14T16:47:32.236Z,2.30
2023-05-14T16:50:00.422Z,2.30
2023-05-14T16:52:28.312Z,2.20
2023-05-14T16:54:56.813Z,2.90
2023-05-14T16:57:26.822Z,2.20
2023-05-14T16:59:54.783Z,2.60
2023-05-14T17:02:22.609Z,2.70
2023-05-14T17:04:50.685Z,2.50
2023-05-14T17:07:18.826Z,2.60
2023-05-14T17:09:46.699Z,2.40
2023-05-14T17:12:14.812Z,2.50
2023-05-14T17:14:43.008Z,2.70
2023-05-14T17:17:11.162Z,2.60
2023-05-14T17:19:39.025Z,2.60
2023-05-14T17:22:07.606Z,2.70
2023-05-14T17:24:36.639Z,2.50
2023-05-14T17:27:07.987Z,2.70
2023-05-14T17:29:35.826Z,2.60
2023-05-14T17:32:04.742Z,2.60
2023-05-14T17:34:32.989Z,2.40
2023-05-14T17:37:01.206Z,2.90
2023-05-14T17:39:29.331Z,2.40
2023-05-14T17:41:57.289Z,2.70
2023-05-14T17:44:25.232Z,2.70
2023-05-14T17:46:53.148Z,2.50
2023-05-14T17:49:20.962Z,2.80
2023-05-14T17:51:49.049Z,2.60
2023-05-14T17:54:16.943Z,3.10
2023-05-14T17:56:45.360Z,4.20
2023-05-14T17:59:15.855Z,3.00
2023-05-14T18:01:44.498Z,2.90
2023-05-14T18:04:12.682Z,2.70
2023-05-14T18:06:42.500Z,2.60
2023-05-14T18:09:10.840Z,2.80
2023-05-14T18:11:38.795Z,3.00
2023-05-14T18:14:07.167Z,3.20
2023-05-14T18:16:37.259Z,3.50
2023-05-14T18:19:05.786Z,5.10
2023-05-14T18:21:33.947Z,5.10
2023-05-14T18:24:04.703Z,4.50
2023-05-14T18:26:35.633Z,3.60
2023-05-14T18:29:03.912Z,3.80
2023-05-14T18:31:32.011Z,3.60
2023-05-14T18:34:02.970Z,3.20
2023-05-14T18:36:30.991Z,3.50
2023-05-14T18:38:59.394Z,3.60
2023-05-14T18:41:27.797Z,3.60
2023-05-14T18:43:56.071Z,3.60
2023-05-14T18:46:27.340Z,4.00
2023-05-14T18:48:58.827Z,4.30
2023-05-14T18:51:27.044Z,4.20
2023-05-14T18:53:54.895Z,3.70
2023-05-14T18:56:24.023Z,5.00
2023-05-14T18:58:53.828Z,4.00
2023-05-14T19:01:24.698Z,4.70
2023-05-14T19:03:53.510Z,4.50
2023-05-14T19:06:21.434Z,4.50
2023-05-14T19:08:49.367Z,4.60
2023-05-14T19:11:18.252Z,4.70
2023-05-14T19:13:47.049Z,4.30
2023-05-14T19:16:15.528Z,4.00
2023-05-14T19:18:44.273Z,4.50
2023-05-14T19:21:12.291Z,4.40
2023-05-14T19:23:40.361Z,4.70
2023-05-14T19:26:08.749Z,4.20
2023-05-14T19:28:39.104Z,4.20
2023-05-14T19:31:07.448Z,4.30
2023-05-14T19:33:35.369Z,4.30
2023-05-14T19:36:05.071Z,4.60
2023-05-14T19:38:33.081Z,4.50
2023-05-14T19:41:00.913Z,4.40
2023-05-14T19:43:28.825Z,3.90
2023-05-14T19:45:57.488Z,4.40
2023-05-14T19:48:25.988Z,4.40
2023-05-14T19:50:53.942Z,4.50
2023-05-14T19:53:21.825Z,4.40
2023-05-14T19:55:50.115Z,4.00
2023-05-14T19:58:18.150Z,4.00
2023-05-14T20:00:47.441Z,4.10
2023-05-14T20:03:15.979Z,4.10
2023-05-14T20:05:49.150Z,4.30
2023-05-14T20:08:19.230Z,4.10
2023-05-14T20:10:48.770Z,4.20
2023-05-14T20:13:16.743Z,4.30
2023-05-14T20:15:45.444Z,4.70
2023-05-14T20:18:13.569Z,4.00
2023-05-14T20:20:42.861Z,3.70
2023-05-14T20:23:10.904Z,4.20
2023-05-14T20:25:39.097Z,3.90
2023-05-14T20:28:07.240Z,4.30
2023-05-14T20:30:35.359Z,4.00
2023-05-14T20:33:04.192Z,4.20
2023-05-14T20:35:33.144Z,4.00
2023-05-14T20:38:02.282Z,4.30
2023-05-14T20:40:31.199Z,4.20
2023-05-14T20:42:59.108Z,4.30
2023-05-14T20:45:27.378Z,4.00
2023-05-14T20:47:56.109Z,4.20
2023-05-14T20:50:27.114Z,4.40
2023-05-14T20:52:55.384Z,4.20
2023-05-14T20:55:23.515Z,4.70
2023-05-14T20:57:51.721Z,4.40
2023-05-14T21:00:20.025Z,4.30
2023-05-14T21:02:49.432Z,4.40
2023-05-14T21:05:18.081Z,4.40
2023-05-14T21:07:46.138Z,4.60
2023-05-14T21:10:14.076Z,4.90
2023-05-14T21:12:42.816Z,5.00
2023-05-14T21:15:12.435Z,4.50
2023-05-14T21:17:40.801Z,4.50
2023-05-14T21:20:09.325Z,4.80
2023-05-14T21:22:37.079Z,4.70
2023-05-14T21:25:05.590Z,4.90
2023-05-14T21:27:33.773Z,4.90
2023-05-14T21:30:01.600Z,4.90
2023-05-14T21:32:29.594Z,5.00
2023-05-14T21:34:57.650Z,4.80
2023-05-14T21:37:25.557Z,4.90
2023-05-14T21:39:53.321Z,5.10
2023-05-14T21:42:21.638Z,5.00
2023-05-14T21:44:49.451Z,5.80
2023-05-14T21:47:17.478Z,4.90
2023-05-14T21:49:45.440Z,5.00
2023-05-14T21:52:13.408Z,5.20
2023-05-14T21:54:43.698Z,5.50
2023-05-14T21:57:11.566Z,5.10
2023-05-14T21:59:39.406Z,5.10
2023-05-14T22:02:08.043Z,5.20
2023-05-14T22:04:36.442Z,4.90
2023-05-14T22:07:04.867Z,4.60
2023-05-14T22:09:32.752Z,5.10
2023-05-14T22:12:00.644Z,4.80
2023-05-14T22:14:28.612Z,5.00
2023-05-14T22:16:56.802Z,4.80
2023-05-14T22:19:25.992Z,4.70
2023-05-14T22:21:54.429Z,5.20
2023-05-14T22:24:22.530Z,4.80
2023-05-14T22:26:50.816Z,5.10
2023-05-14T22:29:18.684Z,4.70
2023-05-14T22:31:46.531Z,4.70
2023-05-14T22:34:14.531Z,4.60
2023-05-14T22:36:42.515Z,4.60
2023-05-14T22:39:11.400Z,4.60
2023-05-14T22:41:41.213Z,5.00
2023-05-14T22:44:09.046Z,4.90
2023-05-14T22:46:36.974Z,4.90
2023-05-14T22:49:04.750Z,5.30
2023-05-14T22:51:32.880Z,4.90
2023-05-14T22:54:00.689Z,4.60
2023-05-14T22:56:28.576Z,4.70
2023-05-14T22:59:00.363Z,4.60
2023-05-14T23:01:30.228Z,4.80
2023-05-14T23:03:58.099Z,4.80
2023-05-14T23:06:26.260Z,5.30
2023-05-14T23:08:54.168Z,4.70
2023-05-14T23:11:22.637Z,5.80
2023-05-14T23:13:50.821Z,4.80
2023-05-14T23:16:18.958Z,4.70
2023-05-14T23:18:47.015Z,4.70
2023-05-14T23:21:15.264Z,4.70
2023-05-14T23:23:43.152Z,4.50
2023-05-14T23:26:11.096Z,4.90
2023-05-14T23:28:38.853Z,5.20
2023-05-14T23:31:06.676Z,4.80
2023-05-14T23:33:34.483Z,5.40
2023-05-14T23:36:03.722Z,4.40
2023-05-14T23:38:31.979Z,5.40
2023-05-14T23:40:59.790Z,4.70
2023-05-14T23:43:27.607Z,4.90
2023-05-14T23:45:55.899Z,5.10
2023-05-14T23:48:24.155Z,5.10
2023-05-14T23:50:51.961Z,5.10
2023-05-14T23:53:19.748Z,5.00
2023-05-14T23:55:47.642Z,4.70
2023-05-14T23:58:15.508Z,4.50
